Vila Real, Portugal

3:26 PM WET on December 20, 2014 (GMT +0000)
Moimenta Da Beira | Change Station
CLOSE
Current Station
Personal Weather Station
Location: Moimenta Da Beira, PT
Elevation: 2116 ft
Nearby Weather Stations

Elev 2116 ft 40.98 °N, 7.61 °W | Updated 1 minute ago

Partly Cloudy
Partly Cloudy
43.8 °F
Feels Like 43 °F
N
3.1
Wind Variable Wind from NW
Gusts 4.5 mph

Today
High -- | Low -- °F
--% Chance of Precip.
Yesterday
High -- | Low -- °F
Precip. -- in
7:52 AM 5:04 PM
Waning Crescent, 3% visible
Pressure 30.51 in
Visibility 5.0 miles
Clouds Few 1100 ft
Windchill 43 °F
Dew Point 37 °F
Humidity 78%
Rainfall 0.00 in
Snow Depth Not available.
UV 1 out of 12
Pollen Not available.
Air Quality Not available.
Flu Activity Not available.
METAR LPPR 201500Z 29004KT 8000 FEW011 14/10 Q1033

More Conditions Fewer Conditions

Pressure 30.51 in
Visibility 5.0 miles
Clouds Few 1100 ft
Windchill 43 °F
Dew Point 37 °F
Humidity 78%
Rainfall 0.00 in
Snow Depth Not available.
UV 1 out of 12
Pollen Not available.
Air Quality Not available.
Flu Activity Not available.
METAR LPPR 201500Z 29004KT 8000 FEW011 14/10 Q1033

More Conditions Fewer Conditions

10-Day Weather Forecast

Almanac

Astronomy

Dec. 20, 2014 Rise Set
Actual Time
Civil Twilight
Nautical Twilight
Astronomical Twilight
Moon
Length of Visible Light
Length of Day
Tomorrow will be .
, % of the Moon is Illuminated

Today's Extremes

Country Highs Country Lows

Community

WunderPhotos

Upload Photos

1,779,198 photos uploaded!

WunderBlogs® & News

Nearby

Air Quality

  Air Quality AQ Index Pollutant
Not available.

Snow Depth

Station Depth Elevation

Earthquake Activity

City Distance Mag. Time & Date
Minimum magnitude displayed is 2.5.

Coastal Water Temperatures

Place Temperature

Nearby Weather Stations